Time;durP1;ratioP1;P1;durP2;ratioP2;P2;SDS_P1;SDS_P2;PMS_P1;PMS_P2;Temp;Humidity;BMP_temperature;BMP_pressure;BME280_temperature;BME280_humidity;BME280_pressure;Samples;Min_cycle;Max_cycle;Signal;HPM_P1;HPM_P2
2022/06/26 00:00:02;;;;;;;0.40;0.40;;;20.30;99.90;;;;;;5071676;28;20197;-70
2022/06/26 00:02:50;;;;;;;0.40;0.40;;;20.30;99.90;;;;;;5071039;28;20240;-71
2022/06/26 00:05:38;;;;;;;0.40;0.40;;;20.30;99.90;;;;;;5070893;28;20203;-70
2022/06/26 00:08:26;;;;;;;0.40;0.40;;;20.30;99.90;;;;;;5071444;28;20228;-69
2022/06/26 00:11:14;;;;;;;0.40;0.40;;;20.20;99.90;;;;;;5071908;28;20609;-70
2022/06/26 00:14:04;;;;;;;0.40;0.40;;;20.20;99.90;;;;;;5072106;28;20273;-69
2022/06/26 00:16:52;;;;;;;0.40;0.40;;;20.20;99.90;;;;;;5069874;28;20707;-71
2022/06/26 00:19:40;;;;;;;0.40;0.40;;;20.10;99.90;;;;;;5071506;28;20673;-71
2022/06/26 00:22:28;;;;;;;0.40;0.40;;;20.10;99.90;;;;;;5071980;28;20721;-70
2022/06/26 00:25:16;;;;;;;0.40;0.40;;;20.10;99.90;;;;;;5071404;28;20705;-70
2022/06/26 00:28:04;;;;;;;0.40;0.40;;;20.10;99.90;;;;;;5071721;28;20780;-71
2022/06/26 00:30:54;;;;;;;0.40;0.40;;;20.10;99.90;;;;;;5070560;28;20279;-69
2022/06/26 00:33:42;;;;;;;0.40;0.40;;;20.10;99.90;;;;;;5071908;28;20687;-68
2022/06/26 00:36:30;;;;;;;0.40;0.40;;;20.00;99.90;;;;;;5071320;28;20211;-71
2022/06/26 00:39:18;;;;;;;0.40;0.40;;;20.00;99.90;;;;;;5071073;28;20431;-69
2022/06/26 00:42:06;;;;;;;0.40;0.40;;;20.00;99.90;;;;;;5070594;28;20224;-70
2022/06/26 00:44:55;;;;;;;0.40;0.40;;;19.90;99.90;;;;;;5069744;28;20359;-72
2022/06/26 00:47:45;;;;;;;0.40;0.40;;;19.90;99.90;;;;;;5071295;28;20196;-68
2022/06/26 00:50:34;;;;;;;0.40;0.40;;;19.90;99.90;;;;;;5071042;28;20212;-71
2022/06/26 00:53:22;;;;;;;0.40;0.40;;;19.90;99.90;;;;;;5070885;28;20229;-72
2022/06/26 00:56:10;;;;;;;0.40;0.40;;;19.80;99.90;;;;;;5070378;28;20201;-71
2022/06/26 00:58:59;;;;;;;0.40;0.40;;;19.80;99.90;;;;;;5070584;28;20246;-69
2022/06/26 01:01:47;;;;;;;0.40;0.40;;;19.80;99.90;;;;;;5071021;28;20348;-71
2022/06/26 01:04:36;;;;;;;0.40;0.40;;;19.80;99.90;;;;;;5073759;28;20288;-70
2022/06/26 01:07:25;;;;;;;0.40;0.40;;;19.70;99.90;;;;;;5074756;28;20208;-69
2022/06/26 01:10:14;;;;;;;1.58;1.58;;;19.70;99.90;;;;;;5075466;28;20681;-71
2022/06/26 01:13:02;;;;;;;0.40;0.40;;;19.60;99.90;;;;;;5074840;28;20221;-72
2022/06/26 01:15:51;;;;;;;0.40;0.40;;;19.60;99.90;;;;;;5075453;28;20569;-70
2022/06/26 01:18:39;;;;;;;0.40;0.40;;;19.60;99.90;;;;;;5074813;28;20270;-70
2022/06/26 01:21:30;;;;;;;0.40;0.40;;;19.50;99.90;;;;;;5073903;28;20201;-68
2022/06/26 01:24:19;;;;;;;0.40;0.40;;;19.50;99.90;;;;;;5074823;28;20700;-69
2022/06/26 01:27:07;;;;;;;0.40;0.40;;;19.50;99.90;;;;;;5074064;28;20197;-69
2022/06/26 01:29:55;;;;;;;0.40;0.40;;;19.50;99.90;;;;;;5074199;28;20283;-70
2022/06/26 01:32:43;;;;;;;0.40;0.40;;;19.50;99.90;;;;;;5074412;28;20224;-70
2022/06/26 01:35:32;;;;;;;0.40;0.40;;;19.40;99.90;;;;;;5074137;28;20205;-68
2022/06/26 01:38:22;;;;;;;0.40;0.40;;;19.40;99.90;;;;;;5074591;28;20695;-69
2022/06/26 01:41:11;;;;;;;0.40;0.40;;;19.40;99.90;;;;;;5074068;28;20220;-71
2022/06/26 01:44:00;;;;;;;0.40;0.40;;;19.40;99.90;;;;;;5074425;28;20286;-72
2022/06/26 01:46:48;;;;;;;0.40;0.40;;;19.40;99.90;;;;;;5074349;28;20674;-69
2022/06/26 01:49:36;;;;;;;0.50;0.50;;;20.00;99.90;;;;;;5071491;28;20211;-69
2022/06/26 01:52:24;;;;;;;0.40;0.40;;;19.40;99.90;;;;;;5076199;28;20285;-69
2022/06/26 01:55:12;;;;;;;0.40;0.40;;;19.40;99.90;;;;;;5095134;28;20196;-68
2022/06/26 01:58:02;;;;;;;0.40;0.40;;;19.40;99.90;;;;;;5093424;28;20710;-69
2022/06/26 02:00:53;;;;;;;0.40;0.40;;;19.40;99.90;;;;;;5093550;28;20207;-69
2022/06/26 02:03:42;;;;;;;0.40;0.40;;;19.40;99.90;;;;;;5094311;28;20215;-69
2022/06/26 02:06:30;;;;;;;0.40;0.40;;;19.40;99.90;;;;;;5086898;28;20230;-69
2022/06/26 02:15:28;;;;;;;0.40;0.40;;;19.30;99.90;;;;;;5072587;28;20372;-70
2022/06/26 02:18:16;;;;;;;0.40;0.40;;;19.30;99.90;;;;;;5073851;28;20216;-69
2022/06/26 02:21:06;;;;;;;0.40;0.40;;;19.30;99.90;;;;;;5073739;28;20212;-69
2022/06/26 02:23:55;;;;;;;0.40;0.40;;;19.30;99.90;;;;;;5074047;28;20269;-69
2022/06/26 02:26:43;;;;;;;0.40;0.40;;;19.20;99.90;;;;;;5073926;28;20739;-71
2022/06/26 02:29:31;;;;;;;0.40;0.40;;;19.30;99.90;;;;;;5073191;28;20696;-71
2022/06/26 02:32:21;;;;;;;0.40;0.40;;;19.30;99.90;;;;;;5072809;28;20767;-69
2022/06/26 02:35:09;;;;;;;0.40;0.40;;;19.20;99.90;;;;;;5073324;28;20225;-69
2022/06/26 02:37:58;;;;;;;0.40;0.40;;;19.20;99.90;;;;;;5073264;28;20246;-68
2022/06/26 02:40:46;;;;;;;0.40;0.40;;;19.20;99.90;;;;;;5073586;28;20240;-69
2022/06/26 02:43:35;;;;;;;0.40;0.40;;;19.20;99.90;;;;;;5072699;28;20782;-69
2022/06/26 02:46:23;;;;;;;0.40;0.40;;;19.20;99.90;;;;;;5072479;28;20200;-69
2022/06/26 02:49:12;;;;;;;0.40;0.40;;;19.10;99.90;;;;;;5072913;28;20276;-71
2022/06/26 02:52:00;;;;;;;0.40;0.40;;;19.10;99.90;;;;;;5072462;28;20306;-69
2022/06/26 02:54:49;;;;;;;0.40;0.40;;;19.10;99.90;;;;;;5073413;28;20196;-69
2022/06/26 02:57:37;;;;;;;0.40;0.40;;;19.10;99.90;;;;;;5072540;28;20299;-71
2022/06/26 03:00:25;;;;;;;4.53;2.67;;;19.10;99.90;;;;;;5073208;28;20307;-70
2022/06/26 03:03:13;;;;;;;0.40;0.40;;;19.20;99.90;;;;;;5072881;28;20260;-69
2022/06/26 03:06:03;;;;;;;0.40;0.40;;;19.20;99.90;;;;;;5071727;28;20678;-70
2022/06/26 03:08:51;;;;;;;0.40;0.40;;;19.20;99.90;;;;;;5072472;28;20197;-69
2022/06/26 03:11:40;;;;;;;0.40;0.40;;;19.20;99.90;;;;;;5071977;28;20274;-70
2022/06/26 03:14:29;;;;;;;0.40;0.40;;;19.20;99.90;;;;;;5072954;28;20207;-67
2022/06/26 03:17:17;;;;;;;0.40;0.40;;;19.20;99.90;;;;;;5071723;28;20244;-69
2022/06/26 03:20:07;;;;;;;0.40;0.40;;;19.30;99.90;;;;;;5072022;28;20196;-71
2022/06/26 03:22:56;;;;;;;0.40;0.40;;;19.30;99.90;;;;;;5071721;28;20305;-69
2022/06/26 03:25:44;;;;;;;0.40;0.40;;;19.40;99.90;;;;;;5071635;28;20197;-69
2022/06/26 03:28:32;;;;;;;0.40;0.40;;;19.40;99.90;;;;;;5072508;28;20299;-68
2022/06/26 03:31:21;;;;;;;0.40;0.40;;;19.50;99.90;;;;;;5072373;28;20201;-69
2022/06/26 03:34:09;;;;;;;0.40;0.40;;;19.60;99.90;;;;;;5071839;28;20219;-69
2022/06/26 03:36:57;;;;;;;0.40;0.40;;;19.60;99.90;;;;;;5070901;28;20205;-71
2022/06/26 03:39:46;;;;;;;0.40;0.40;;;19.70;99.90;;;;;;5071986;28;20220;-69
2022/06/26 03:42:34;;;;;;;0.40;0.40;;;19.80;99.90;;;;;;5072650;28;20248;-69
2022/06/26 03:45:23;;;;;;;0.40;0.40;;;19.90;99.90;;;;;;5071016;28;20227;-70
2022/06/26 03:48:11;;;;;;;0.40;0.40;;;20.00;99.90;;;;;;5071962;28;20193;-68
2022/06/26 03:50:59;;;;;;;0.40;0.40;;;20.10;99.90;;;;;;5070821;28;20204;-69
2022/06/26 03:53:47;;;;;;;0.40;0.40;;;20.20;99.90;;;;;;5071838;28;20232;-69
2022/06/26 03:56:37;;;;;;;0.43;0.43;;;20.20;99.90;;;;;;5071186;28;20283;-70
2022/06/26 03:59:25;;;;;;;0.40;0.40;;;20.30;99.90;;;;;;5071197;28;20313;-69
2022/06/26 04:02:13;;;;;;;0.40;0.40;;;20.30;99.90;;;;;;5071184;28;20221;-69
2022/06/26 04:05:01;;;;;;;0.40;0.40;;;20.40;99.90;;;;;;5070190;28;20200;-71
2022/06/26 04:07:49;;;;;;;0.50;0.50;;;20.40;99.90;;;;;;5071090;28;20686;-69
2022/06/26 04:10:38;;;;;;;0.40;0.40;;;20.40;99.90;;;;;;5071679;28;20212;-67
2022/06/26 04:13:27;;;;;;;0.40;0.40;;;20.40;99.90;;;;;;5070700;28;20302;-71
2022/06/26 04:16:15;;;;;;;0.40;0.40;;;20.40;99.90;;;;;;5071425;28;20271;-70
2022/06/26 04:19:04;;;;;;;0.40;0.40;;;20.40;99.90;;;;;;5070942;28;20280;-67
2022/06/26 04:21:52;;;;;;;0.40;0.40;;;20.40;99.90;;;;;;5072355;28;20278;-68
2022/06/26 04:24:40;;;;;;;0.40;0.40;;;20.50;99.90;;;;;;5071610;28;20201;-71
2022/06/26 04:27:28;;;;;;;0.40;0.40;;;20.50;99.90;;;;;;5071332;28;20243;-69
2022/06/26 04:30:18;;;;;;;0.43;0.43;;;20.50;99.90;;;;;;5070513;28;20681;-70
2022/06/26 04:33:06;;;;;;;0.40;0.40;;;20.50;99.90;;;;;;5071327;28;20251;-70
2022/06/26 04:35:54;;;;;;;0.40;0.40;;;20.50;99.90;;;;;;5071299;28;20200;-69
2022/06/26 04:38:42;;;;;;;0.40;0.40;;;20.50;99.90;;;;;;5070593;28;20307;-68
2022/06/26 04:41:35;;;;;;;0.47;0.47;;;20.50;99.90;;;;;;5071241;28;20279;-68
2022/06/26 04:44:23;;;;;;;0.40;0.40;;;20.60;99.90;;;;;;5070585;28;20201;-72
2022/06/26 04:47:12;;;;;;;0.40;0.40;;;20.70;99.90;;;;;;5071039;28;20637;-68
2022/06/26 04:50:00;;;;;;;0.40;0.40;;;20.80;99.90;;;;;;5071367;28;20258;-67
2022/06/26 04:52:49;;;;;;;1.40;1.30;;;20.90;99.90;;;;;;5071028;28;20717;-68
2022/06/26 04:55:37;;;;;;;0.50;0.50;;;21.00;99.90;;;;;;5070789;28;20572;-68
2022/06/26 04:58:25;;;;;;;0.40;0.40;;;21.20;99.90;;;;;;5071324;28;20224;-69
2022/06/26 05:01:14;;;;;;;0.40;0.40;;;21.20;99.90;;;;;;5071902;28;20200;-69
2022/06/26 05:04:04;;;;;;;0.40;0.40;;;21.30;99.90;;;;;;5071543;28;20201;-68
2022/06/26 05:06:52;;;;;;;0.40;0.40;;;21.30;99.90;;;;;;5073776;28;20209;-69
2022/06/26 05:09:40;;;;;;;0.40;0.40;;;21.40;99.90;;;;;;5071477;28;20294;-67
2022/06/26 05:12:28;;;;;;;0.40;0.40;;;21.40;99.90;;;;;;5072005;28;20278;-67
2022/06/26 05:15:17;;;;;;;0.43;0.43;;;21.50;99.90;;;;;;5071552;28;20676;-67
2022/06/26 05:18:05;;;;;;;3.15;2.95;;;21.50;99.90;;;;;;5071666;28;20584;-68
2022/06/26 05:20:55;;;;;;;0.40;0.40;;;21.60;99.90;;;;;;5063995;28;20267;-67
2022/06/26 05:23:43;;;;;;;0.77;0.77;;;21.80;99.90;;;;;;5072211;28;20270;-67
2022/06/26 05:26:32;;;;;;;0.40;0.40;;;22.00;99.90;;;;;;5072153;28;20223;-67
2022/06/26 05:29:20;;;;;;;0.50;0.50;;;22.20;99.90;;;;;;5072274;28;20229;-67
2022/06/26 05:32:09;;;;;;;0.40;0.40;;;22.40;99.90;;;;;;5065457;28;20220;-66
2022/06/26 05:34:57;;;;;;;0.40;0.40;;;22.50;99.90;;;;;;5072395;28;20698;-66
2022/06/26 05:37:46;;;;;;;0.40;0.40;;;22.60;99.90;;;;;;5071801;28;20651;-68
2022/06/26 05:40:34;;;;;;;0.40;0.40;;;22.80;99.90;;;;;;5071630;28;20273;-66
2022/06/26 05:43:22;;;;;;;0.50;0.50;;;22.80;99.90;;;;;;5071068;28;20643;-68
2022/06/26 05:46:10;;;;;;;0.40;0.40;;;22.80;99.90;;;;;;5071715;28;20696;-67
2022/06/26 05:48:59;;;;;;;0.40;0.40;;;22.90;99.90;;;;;;5072109;28;20212;-67
2022/06/26 05:51:47;;;;;;;0.40;0.40;;;22.90;99.90;;;;;;5074779;28;20326;-67
2022/06/26 05:54:36;;;;;;;0.40;0.40;;;23.30;99.90;;;;;;5074562;28;20294;-68
2022/06/26 05:57:25;;;;;;;0.50;0.50;;;23.20;99.90;;;;;;5074709;28;20196;-68
2022/06/26 06:00:14;;;;;;;0.40;0.40;;;23.20;99.90;;;;;;5074688;28;20217;-67
2022/06/26 06:03:02;;;;;;;1.92;1.50;;;23.40;99.90;;;;;;5074871;28;20212;-68
2022/06/26 06:05:50;;;;;;;0.40;0.40;;;23.50;99.90;;;;;;5074021;28;20264;-67
2022/06/26 06:08:38;;;;;;;0.40;0.40;;;23.60;99.90;;;;;;5074516;28;20201;-68
2022/06/26 06:11:28;;;;;;;0.40;0.40;;;23.80;99.90;;;;;;5073999;28;20193;-68
2022/06/26 06:14:16;;;;;;;0.40;0.40;;;24.00;99.90;;;;;;5073196;28;20201;-68
2022/06/26 06:20:09;;;;;;;0.47;0.47;;;24.40;99.90;;;;;;5075867;28;20216;-68
2022/06/26 06:23:02;;;;;;;0.40;0.40;;;24.70;99.90;;;;;;5074210;28;20253;-68
2022/06/26 06:25:50;;;;;;;0.40;0.40;;;24.90;99.90;;;;;;5074091;28;20226;-68
2022/06/26 06:28:40;;;;;;;0.40;0.40;;;25.20;99.90;;;;;;5073678;28;20250;-68
2022/06/26 06:31:28;;;;;;;0.40;0.40;;;25.40;99.90;;;;;;5073147;28;20200;-67
2022/06/26 06:34:16;;;;;;;0.40;0.40;;;25.60;99.90;;;;;;5072765;28;20201;-68
2022/06/26 06:37:04;;;;;;;0.40;0.40;;;25.80;99.90;;;;;;5074357;28;20201;-67
2022/06/26 06:39:53;;;;;;;0.40;0.40;;;26.00;99.90;;;;;;5072525;28;20767;-68
2022/06/26 06:42:42;;;;;;;0.50;0.50;;;26.00;99.90;;;;;;5073096;28;20267;-68
2022/06/26 06:45:31;;;;;;;0.47;0.47;;;26.00;99.90;;;;;;5072227;28;20208;-68
2022/06/26 06:48:20;;;;;;;0.40;0.40;;;25.80;99.90;;;;;;5073482;28;20246;-68
2022/06/26 06:51:08;;;;;;;0.40;0.40;;;25.70;99.90;;;;;;5073232;28;20676;-68
2022/06/26 06:53:56;;;;;;;0.50;0.50;;;25.60;99.90;;;;;;5073242;28;20576;-68
2022/06/26 06:56:44;;;;;;;0.50;0.50;;;25.40;99.90;;;;;;5073385;28;20205;-68
2022/06/26 06:59:32;;;;;;;0.40;0.40;;;25.30;99.90;;;;;;5073302;28;20302;-68
2022/06/26 07:02:22;;;;;;;0.40;0.40;;;25.20;99.90;;;;;;5072103;28;20718;-68
2022/06/26 07:05:10;;;;;;;0.40;0.40;;;25.20;99.90;;;;;;5072834;28;20338;-68
2022/06/26 07:07:59;;;;;;;0.40;0.40;;;25.10;99.90;;;;;;5073235;28;20319;-68
2022/06/26 07:10:47;;;;;;;0.40;0.40;;;25.10;99.90;;;;;;5072326;28;20209;-68
2022/06/26 07:13:35;;;;;;;0.40;0.40;;;25.20;99.90;;;;;;5073250;28;20220;-68
2022/06/26 07:16:23;;;;;;;0.40;0.40;;;25.20;99.90;;;;;;5073159;28;20228;-68
2022/06/26 07:19:12;;;;;;;0.40;0.40;;;25.30;99.90;;;;;;5073775;28;20249;-68
2022/06/26 07:22:01;;;;;;;1.33;1.33;;;25.30;99.90;;;;;;5072725;28;20224;-67
2022/06/26 07:24:49;;;;;;;0.73;0.73;;;25.30;99.90;;;;;;5072715;28;20216;-66
2022/06/26 07:27:37;;;;;;;0.40;0.40;;;25.30;99.90;;;;;;5073255;28;20200;-68
2022/06/26 07:30:26;;;;;;;0.40;0.40;;;25.30;99.90;;;;;;5072534;28;20196;-68
2022/06/26 07:36:18;;;;;;;0.40;0.40;;;25.40;99.90;;;;;;5072638;28;20291;-68
2022/06/26 07:39:07;;;;;;;0.40;0.40;;;25.40;99.90;;;;;;5071636;28;20623;-68
2022/06/26 07:41:55;;;;;;;0.50;0.50;;;25.40;99.90;;;;;;5072441;28;20224;-68
2022/06/26 07:44:43;;;;;;;0.40;0.40;;;25.40;99.90;;;;;;5072031;28;20298;-68
2022/06/26 07:47:31;;;;;;;0.40;0.40;;;25.50;99.90;;;;;;5072522;28;20274;-68
2022/06/26 07:50:20;;;;;;;0.40;0.40;;;25.70;99.90;;;;;;5067205;28;20197;-68
2022/06/26 07:53:10;;;;;;;0.40;0.40;;;25.70;99.90;;;;;;5070646;28;20305;-68
2022/06/26 07:55:58;;;;;;;0.40;0.40;;;25.80;99.90;;;;;;5072358;28;20228;-68
2022/06/26 07:58:46;;;;;;;0.47;0.47;;;25.90;99.90;;;;;;5070534;28;20279;-68
2022/06/26 08:01:35;;;;;;;0.40;0.40;;;25.90;99.90;;;;;;5071780;28;20599;-68
2022/06/26 08:04:23;;;;;;;0.40;0.40;;;26.00;99.90;;;;;;5071139;28;20205;-68
2022/06/26 08:07:11;;;;;;;0.40;0.40;;;26.10;99.90;;;;;;5071094;28;20204;-68
2022/06/26 08:10:01;;;;;;;0.40;0.40;;;26.20;99.90;;;;;;5071255;28;20238;-68
2022/06/26 08:12:49;;;;;;;0.40;0.40;;;26.30;99.90;;;;;;5070887;28;20216;-68
2022/06/26 08:15:37;;;;;;;0.40;0.40;;;26.40;99.90;;;;;;5071279;28;20228;-68
2022/06/26 08:18:25;;;;;;;0.40;0.40;;;26.40;99.90;;;;;;5073242;28;20724;-65
2022/06/26 08:24:21;;;;;;;0.40;0.40;;;26.70;99.90;;;;;;5049048;28;20305;-66
2022/06/26 08:27:11;;;;;;;0.40;0.40;;;26.80;99.90;;;;;;5071474;28;20197;-66
2022/06/26 08:29:59;;;;;;;0.40;0.40;;;26.90;99.90;;;;;;5070813;28;20288;-66
2022/06/26 08:32:47;;;;;;;0.50;0.50;;;27.00;99.90;;;;;;5070047;28;20244;-67
2022/06/26 08:35:35;;;;;;;0.40;0.40;;;27.10;99.90;;;;;;5071169;28;20196;-66
2022/06/26 08:38:23;;;;;;;0.40;0.40;;;27.20;99.90;;;;;;5070842;28;20201;-66
2022/06/26 08:41:13;;;;;;;0.40;0.40;;;27.30;99.90;;;;;;5070744;28;20248;-66
2022/06/26 08:44:03;;;;;;;0.50;0.50;;;27.40;99.90;;;;;;5071064;28;20196;-67
2022/06/26 08:46:54;;;;;;;0.40;0.40;;;27.40;99.90;;;;;;5071014;28;20279;-66
2022/06/26 08:49:43;;;;;;;0.40;0.40;;;27.50;99.90;;;;;;5069610;28;20540;-66
2022/06/26 08:52:32;;;;;;;0.50;0.50;;;27.50;99.90;;;;;;5070139;28;20286;-67
2022/06/26 08:55:21;;;;;;;0.40;0.40;;;27.70;99.90;;;;;;5071138;28;20598;-66
2022/06/26 08:58:10;;;;;;;0.40;0.40;;;27.80;99.90;;;;;;5069638;28;20201;-67
2022/06/26 09:00:59;;;;;;;0.40;0.40;;;27.90;99.90;;;;;;5069925;28;20720;-66
2022/06/26 09:03:47;;;;;;;0.40;0.40;;;28.00;99.90;;;;;;5070457;28;20349;-66
2022/06/26 09:06:37;;;;;;;0.75;0.75;;;28.10;99.90;;;;;;5071023;28;20201;-67
2022/06/26 09:09:27;;;;;;;0.40;0.40;;;28.20;99.90;;;;;;5069724;28;20208;-66
2022/06/26 09:12:15;;;;;;;0.95;0.90;;;28.50;99.90;;;;;;5071069;28;20223;-66
2022/06/26 09:15:04;;;;;;;0.40;0.40;;;28.80;99.90;;;;;;5070852;28;20274;-67
2022/06/26 09:18:02;;;;;;;0.70;0.70;;;29.00;99.90;;;;;;5070775;28;20282;-68
2022/06/26 09:20:53;;;;;;;0.40;0.40;;;29.30;99.90;;;;;;5069945;28;20779;-66
2022/06/26 09:23:52;;;;;;;0.40;0.40;;;29.40;99.90;;;;;;5070147;28;20295;-66
2022/06/26 09:26:42;;;;;;;0.40;0.40;;;29.40;99.90;;;;;;5074736;28;20192;-66
2022/06/26 09:29:30;;;;;;;1.15;1.13;;;29.70;99.90;;;;;;5073797;28;20204;-65
2022/06/26 09:32:19;;;;;;;0.70;0.70;;;29.80;99.90;;;;;;5074722;28;20251;-65
2022/06/26 09:35:09;;;;;;;0.40;0.40;;;29.90;99.90;;;;;;5073491;28;20666;-65
2022/06/26 09:38:00;;;;;;;0.40;0.40;;;30.10;99.90;;;;;;5073093;28;20240;-65
2022/06/26 09:40:53;;;;;;;0.43;0.43;;;30.30;99.90;;;;;;5073884;28;20255;-66
2022/06/26 09:43:44;;;;;;;0.40;0.40;;;30.50;99.90;;;;;;5074720;28;20266;-66
2022/06/26 09:46:33;;;;;;;0.50;0.50;;;30.70;99.90;;;;;;5073806;28;20204;-67
2022/06/26 09:49:22;;;;;;;0.40;0.40;;;30.70;99.90;;;;;;5073476;28;20236;-65
2022/06/26 09:52:11;;;;;;;0.40;0.40;;;30.70;99.90;;;;;;5074282;28;20221;-65
2022/06/26 09:55:01;;;;;;;0.40;0.40;;;30.70;99.90;;;;;;5073601;28;20197;-65
2022/06/26 09:57:50;;;;;;;0.40;0.40;;;30.70;99.90;;;;;;5074305;28;20553;-67
2022/06/26 10:00:39;;;;;;;0.40;0.40;;;30.70;99.90;;;;;;5074009;28;20246;-66
2022/06/26 10:06:33;;;;;;;0.40;0.40;;;30.60;99.90;;;;;;5073866;28;20206;-66
2022/06/26 10:09:23;;;;;;;0.40;0.40;;;30.50;99.90;;;;;;5073445;28;20209;-66
2022/06/26 10:12:13;;;;;;;0.40;0.40;;;30.70;99.90;;;;;;5073595;28;20289;-67
2022/06/26 10:15:03;;;;;;;0.40;0.40;;;30.70;99.90;;;;;;5073102;28;20601;-67
2022/06/26 10:18:30;;;;;;;0.40;0.40;;;30.70;99.90;;;;;;5073986;28;20331;-68
2022/06/26 10:21:18;;;;;;;0.40;0.40;;;30.70;99.90;;;;;;5075159;28;20748;-68
2022/06/26 10:24:07;;;;;;;0.40;0.40;;;30.80;99.90;;;;;;5073183;28;20575;-68
2022/06/26 10:26:59;;;;;;;0.40;0.40;;;30.70;99.90;;;;;;5073706;28;20197;-67
2022/06/26 10:29:47;;;;;;;0.60;0.60;;;30.70;99.90;;;;;;5071882;28;20212;-67
2022/06/26 10:32:36;;;;;;;0.40;0.40;;;30.40;99.90;;;;;;5072620;28;20225;-68
2022/06/26 10:35:38;;;;;;;0.47;0.43;;;30.40;99.90;;;;;;5072892;28;20208;-67
2022/06/26 10:38:27;;;;;;;0.40;0.40;;;30.50;99.90;;;;;;5073035;28;20204;-67
2022/06/26 10:44:33;;;;;;;0.40;0.40;;;30.70;99.50;;;;;;5072400;28;20669;-66
2022/06/26 10:47:21;;;;;;;0.40;0.40;;;30.60;99.30;;;;;;5072086;28;20286;-67
2022/06/26 10:50:24;;;;;;;0.40;0.40;;;30.60;98.90;;;;;;5073465;28;20552;-67
2022/06/26 10:53:14;;;;;;;0.40;0.40;;;30.40;99.40;;;;;;5072636;28;20252;-67
2022/06/26 10:56:05;;;;;;;0.40;0.40;;;30.30;99.90;;;;;;5072362;28;20206;-67
2022/06/26 10:59:00;;;;;;;0.40;0.40;;;30.30;99.90;;;;;;5073014;28;20208;-66
2022/06/26 11:01:50;;;;;;;0.40;0.40;;;30.40;98.90;;;;;;5072520;28;20217;-67
2022/06/26 11:04:44;;;;;;;0.40;0.40;;;30.60;99.30;;;;;;5073506;28;20439;-67
2022/06/26 11:07:41;;;;;;;0.40;0.40;;;30.40;98.50;;;;;;5072172;28;20231;-67
2022/06/26 11:10:30;;;;;;;0.40;0.40;;;30.50;99.90;;;;;;5072033;28;20196;-67
2022/06/26 11:13:19;;;;;;;0.40;0.40;;;30.40;99.50;;;;;;5072054;28;20213;-67
2022/06/26 11:16:07;;;;;;;0.40;0.40;;;30.40;98.30;;;;;;5072088;28;20357;-67
2022/06/26 11:18:57;;;;;;;0.40;0.40;;;30.40;98.80;;;;;;5071347;28;20197;-67
2022/06/26 11:21:45;;;;;;;0.40;0.40;;;30.40;99.00;;;;;;5072093;28;20325;-67
2022/06/26 11:24:33;;;;;;;1.50;0.52;;;30.40;99.40;;;;;;5071678;28;20205;-67
2022/06/26 11:27:22;;;;;;;0.40;0.40;;;30.40;99.00;;;;;;5071364;28;20196;-67
2022/06/26 11:30:11;;;;;;;0.40;0.40;;;30.40;99.00;;;;;;5072249;28;20697;-67
2022/06/26 11:32:59;;;;;;;0.57;0.57;;;30.50;99.30;;;;;;5071639;28;20213;-67
2022/06/26 11:35:48;;;;;;;0.40;0.40;;;30.50;98.60;;;;;;5072001;28;20204;-67
2022/06/26 11:38:37;;;;;;;0.40;0.40;;;30.50;98.80;;;;;;5071715;28;20645;-67
2022/06/26 11:41:26;;;;;;;0.40;0.40;;;30.60;97.30;;;;;;5071206;28;20236;-66
2022/06/26 11:44:14;;;;;;;0.40;0.40;;;30.50;97.80;;;;;;5071685;28;20203;-67
2022/06/26 11:47:02;;;;;;;0.40;0.40;;;30.50;97.90;;;;;;5071439;28;20280;-67
2022/06/26 11:49:50;;;;;;;0.40;0.40;;;30.70;98.40;;;;;;5070187;28;20714;-67
2022/06/26 11:52:40;;;;;;;0.40;0.40;;;30.90;97.40;;;;;;5070980;28;20720;-67
2022/06/26 11:55:29;;;;;;;0.40;0.40;;;31.10;96.20;;;;;;5071666;28;20258;-67
2022/06/26 11:58:18;;;;;;;0.40;0.40;;;31.10;95.80;;;;;;5071912;28;20204;-67
2022/06/26 12:01:08;;;;;;;0.40;0.40;;;31.00;95.90;;;;;;5071260;28;20581;-67
2022/06/26 12:03:56;;;;;;;0.40;0.40;;;31.00;95.70;;;;;;5071295;28;20227;-68
2022/06/26 12:06:52;;;;;;;0.40;0.40;;;31.10;96.60;;;;;;5071173;28;20200;-67
2022/06/26 12:09:42;;;;;;;0.40;0.40;;;31.10;95.70;;;;;;5070123;28;20582;-67
2022/06/26 12:12:30;;;;;;;0.40;0.40;;;31.20;95.10;;;;;;5071716;28;20216;-67
2022/06/26 12:15:18;;;;;;;0.40;0.40;;;31.40;95.20;;;;;;5071581;28;20205;-68
2022/06/26 12:18:07;;;;;;;0.40;0.40;;;31.70;97.00;;;;;;5073851;28;20625;-67
2022/06/26 12:20:55;;;;;;;0.40;0.40;;;32.00;93.60;;;;;;5070122;28;20200;-68
2022/06/26 12:23:45;;;;;;;0.40;0.40;;;32.30;93.40;;;;;;5071314;28;20310;-67
2022/06/26 12:26:38;;;;;;;0.40;0.40;;;32.60;92.40;;;;;;5071197;28;20254;-67
2022/06/26 12:29:26;;;;;;;0.40;0.40;;;32.70;91.20;;;;;;5071047;28;20246;-68
2022/06/26 12:32:14;;;;;;;0.40;0.40;;;33.00;90.30;;;;;;5065939;28;20220;-68
2022/06/26 12:35:02;;;;;;;0.40;0.40;;;33.40;90.50;;;;;;5071779;28;20228;-68
2022/06/26 12:37:50;;;;;;;1.00;1.00;;;33.60;88.80;;;;;;5071765;28;20681;-68
2022/06/26 12:40:39;;;;;;;0.75;0.73;;;33.80;88.20;;;;;;5071212;28;20196;-69
2022/06/26 12:43:28;;;;;;;0.40;0.40;;;34.30;87.20;;;;;;5070579;28;20716;-68
2022/06/26 12:46:16;;;;;;;0.40;0.40;;;34.40;84.60;;;;;;5070345;28;20196;-68
2022/06/26 12:49:04;;;;;;;0.40;0.40;;;34.40;85.10;;;;;;5071016;28;20755;-68
2022/06/26 12:51:53;;;;;;;1.05;1.05;;;35.00;84.00;;;;;;5071145;28;20237;-68
2022/06/26 12:54:41;;;;;;;0.40;0.40;;;36.80;81.40;;;;;;5070273;28;20215;-68
2022/06/26 12:57:29;;;;;;;0.40;0.40;;;39.30;76.30;;;;;;5072146;28;20684;-68
2022/06/26 13:00:19;;;;;;;0.40;0.40;;;41.70;67.80;;;;;;5073920;28;20334;-68
2022/06/26 13:03:07;;;;;;;0.40;0.40;;;43.10;59.80;;;;;;5074540;28;20227;-68
2022/06/26 13:05:55;;;;;;;0.40;0.40;;;43.50;57.50;;;;;;5075619;28;20288;-69
2022/06/26 13:08:44;;;;;;;0.50;0.50;;;44.40;55.80;;;;;;5075126;28;20274;-68
2022/06/26 13:11:32;;;;;;;0.52;0.52;;;45.10;52.70;;;;;;5075192;28;20189;-69
2022/06/26 13:14:20;;;;;;;0.50;0.50;;;46.60;50.10;;;;;;5074981;28;20665;-69
2022/06/26 13:17:10;;;;;;;0.50;0.50;;;46.60;49.20;;;;;;5074640;28;20238;-69
2022/06/26 13:19:59;;;;;;;0.50;0.50;;;47.10;47.60;;;;;;5074214;28;20608;-69
2022/06/26 13:22:47;;;;;;;0.50;0.50;;;47.50;46.10;;;;;;5074766;28;20295;-69
2022/06/26 13:25:35;;;;;;;0.60;0.60;;;48.20;46.00;;;;;;5074383;28;20352;-69
2022/06/26 13:28:23;;;;;;;0.65;0.65;;;49.30;43.50;;;;;;5075164;28;20199;-69
2022/06/26 13:31:31;;;;;;;0.60;0.60;;;50.50;42.20;;;;;;5075257;28;20253;-69
2022/06/26 13:34:21;;;;;;;0.70;0.70;;;51.60;40.70;;;;;;5074218;28;20273;-69
2022/06/26 13:37:09;;;;;;;0.70;0.70;;;51.90;39.90;;;;;;5074958;28;20197;-69
2022/06/26 13:39:57;;;;;;;0.85;0.85;;;52.00;38.90;;;;;;5073723;28;20232;-69
2022/06/26 13:42:45;;;;;;;0.90;0.90;;;52.10;37.80;;;;;;5074584;28;20829;-69
2022/06/26 13:45:33;;;;;;;0.80;0.80;;;52.50;38.00;;;;;;5075414;28;20453;-69
2022/06/26 13:48:22;;;;;;;0.80;0.80;;;53.10;37.30;;;;;;5073045;28;20338;-69
2022/06/26 13:51:11;;;;;;;0.88;0.88;;;52.80;35.70;;;;;;5072922;28;20208;-69
2022/06/26 13:53:59;;;;;;;0.90;0.90;;;52.70;36.10;;;;;;5074758;28;20212;-69
2022/06/26 13:56:47;;;;;;;0.90;0.90;;;53.70;35.40;;;;;;5074164;28;20212;-68
2022/06/26 13:59:36;;;;;;;0.90;0.90;;;53.50;34.80;;;;;;5073301;28;20205;-69
2022/06/26 14:02:24;;;;;;;1.10;1.10;;;53.70;34.60;;;;;;5074197;28;20385;-69
2022/06/26 14:05:12;;;;;;;0.90;0.90;;;54.00;33.50;;;;;;5073433;28;20273;-70
2022/06/26 14:08:02;;;;;;;0.90;0.90;;;54.20;33.60;;;;;;5074393;28;20197;-69
2022/06/26 14:10:51;;;;;;;1.00;1.00;;;54.60;33.20;;;;;;5073930;28;20281;-69
2022/06/26 14:13:39;;;;;;;1.00;1.00;;;54.50;32.90;;;;;;5076030;28;20212;-69
2022/06/26 14:16:27;;;;;;;2.28;2.28;;;54.70;33.50;;;;;;5075844;28;20197;-69
2022/06/26 14:19:15;;;;;;;1.27;1.27;;;55.10;33.60;;;;;;5073027;28;20678;-69
2022/06/26 14:28:22;;;;;;;1.10;1.10;;;55.40;33.10;;;;;;5073172;28;20208;-69
2022/06/26 14:31:10;;;;;;;1.30;1.30;;;55.00;33.50;;;;;;5073776;28;20204;-68
2022/06/26 14:34:03;;;;;;;1.10;1.10;;;54.60;33.60;;;;;;5073703;28;20666;-68
2022/06/26 14:36:51;;;;;;;1.52;1.52;;;53.60;33.10;;;;;;5073167;28;20323;-68
2022/06/26 14:39:39;;;;;;;0.90;0.90;;;52.10;33.50;;;;;;5073831;28;20250;-68
2022/06/26 14:42:28;;;;;;;0.70;0.70;;;49.50;35.00;;;;;;5073088;28;20225;-67
2022/06/26 14:45:17;;;;;;;0.70;0.70;;;46.50;36.70;;;;;;5073953;28;20266;-67
2022/06/26 14:48:06;;;;;;;0.60;0.60;;;44.00;39.10;;;;;;5073433;28;20225;-67
2022/06/26 14:50:54;;;;;;;0.60;0.60;;;42.00;41.20;;;;;;5072596;28;20224;-67
2022/06/26 14:53:43;;;;;;;0.50;0.50;;;42.90;41.80;;;;;;5073243;28;20278;-67
2022/06/26 14:56:31;;;;;;;0.50;0.50;;;44.30;40.20;;;;;;5073099;28;20339;-67
2022/06/26 14:59:20;;;;;;;0.60;0.60;;;43.80;39.80;;;;;;5073291;28;20727;-67
2022/06/26 15:02:09;;;;;;;0.50;0.50;;;43.70;41.00;;;;;;5072883;28;20226;-67
2022/06/26 15:04:57;;;;;;;0.50;0.50;;;45.40;40.10;;;;;;5073174;28;20220;-68
2022/06/26 15:07:46;;;;;;;0.60;0.60;;;47.30;39.20;;;;;;5073496;28;20676;-68